sensor_id;sensor_type;location;lat;lon;timestamp;P1;durP1;ratioP1;P2;durP2;ratioP2
74974;SDS011;68459;50.836;19.138;2023-05-29T00:01:23;3.97;;;2.00;;
74974;SDS011;68459;50.836;19.138;2023-05-29T00:04:27;5.00;;;2.33;;
74974;SDS011;68459;50.836;19.138;2023-05-29T00:07:31;4.28;;;2.17;;
74974;SDS011;68459;50.836;19.138;2023-05-29T00:10:37;4.53;;;2.00;;
74974;SDS011;68459;50.836;19.138;2023-05-29T00:13:40;4.72;;;2.03;;
74974;SDS011;68459;50.836;19.138;2023-05-29T00:16:45;4.50;;;2.17;;
74974;SDS011;68459;50.836;19.138;2023-05-29T00:19:51;4.43;;;1.95;;
74974;SDS011;68459;50.836;19.138;2023-05-29T00:22:55;7.50;;;2.72;;
74974;SDS011;68459;50.836;19.138;2023-05-29T00:26:01;4.20;;;2.13;;
74974;SDS011;68459;50.836;19.138;2023-05-29T00:29:05;5.68;;;2.20;;
74974;SDS011;68459;50.836;19.138;2023-05-29T00:32:09;5.67;;;1.90;;
74974;SDS011;68459;50.836;19.138;2023-05-29T00:35:13;4.90;;;2.00;;
74974;SDS011;68459;50.836;19.138;2023-05-29T00:38:17;4.00;;;2.20;;
74974;SDS011;68459;50.836;19.138;2023-05-29T00:41:23;3.30;;;1.97;;
74974;SDS011;68459;50.836;19.138;2023-05-29T00:44:27;3.85;;;2.05;;
74974;SDS011;68459;50.836;19.138;2023-05-29T00:47:31;6.00;;;2.22;;
74974;SDS011;68459;50.836;19.138;2023-05-29T00:50:35;7.03;;;2.35;;
74974;SDS011;68459;50.836;19.138;2023-05-29T00:53:40;4.18;;;2.15;;
74974;SDS011;68459;50.836;19.138;2023-05-29T00:56:49;5.50;;;2.63;;
74974;SDS011;68459;50.836;19.138;2023-05-29T00:59:53;7.80;;;2.47;;
74974;SDS011;68459;50.836;19.138;2023-05-29T01:02:58;5.43;;;2.37;;
74974;SDS011;68459;50.836;19.138;2023-05-29T01:06:07;5.15;;;2.28;;
74974;SDS011;68459;50.836;19.138;2023-05-29T01:09:12;4.95;;;2.38;;
74974;SDS011;68459;50.836;19.138;2023-05-29T01:12:23;6.37;;;2.73;;
74974;SDS011;68459;50.836;19.138;2023-05-29T01:15:41;4.88;;;2.65;;
74974;SDS011;68459;50.836;19.138;2023-05-29T01:19:00;6.65;;;2.53;;
74974;SDS011;68459;50.836;19.138;2023-05-29T01:22:43;7.40;;;2.90;;
74974;SDS011;68459;50.836;19.138;2023-05-29T01:26:17;5.65;;;2.63;;
74974;SDS011;68459;50.836;19.138;2023-05-29T01:29:53;6.70;;;2.85;;
74974;SDS011;68459;50.836;19.138;2023-05-29T01:33:03;6.05;;;2.50;;
74974;SDS011;68459;50.836;19.138;2023-05-29T01:36:08;6.73;;;2.53;;
74974;SDS011;68459;50.836;19.138;2023-05-29T01:39:13;4.55;;;2.85;;
74974;SDS011;68459;50.836;19.138;2023-05-29T01:42:18;5.25;;;2.65;;
74974;SDS011;68459;50.836;19.138;2023-05-29T01:45:24;4.93;;;2.57;;
74974;SDS011;68459;50.836;19.138;2023-05-29T01:48:28;5.30;;;2.67;;
74974;SDS011;68459;50.836;19.138;2023-05-29T01:51:33;6.22;;;2.88;;
74974;SDS011;68459;50.836;19.138;2023-05-29T01:54:37;6.20;;;3.05;;
74974;SDS011;68459;50.836;19.138;2023-05-29T01:57:42;3.60;;;2.33;;
74974;SDS011;68459;50.836;19.138;2023-05-29T02:00:49;6.28;;;2.45;;
74974;SDS011;68459;50.836;19.138;2023-05-29T02:03:53;6.43;;;2.42;;
74974;SDS011;68459;50.836;19.138;2023-05-29T02:06:57;6.13;;;2.43;;
74974;SDS011;68459;50.836;19.138;2023-05-29T02:10:02;5.80;;;2.97;;
74974;SDS011;68459;50.836;19.138;2023-05-29T02:13:06;5.60;;;2.30;;
74974;SDS011;68459;50.836;19.138;2023-05-29T02:16:12;5.03;;;2.73;;
74974;SDS011;68459;50.836;19.138;2023-05-29T02:19:15;5.50;;;2.50;;
74974;SDS011;68459;50.836;19.138;2023-05-29T02:22:20;5.03;;;2.22;;
74974;SDS011;68459;50.836;19.138;2023-05-29T02:25:24;6.97;;;2.60;;
74974;SDS011;68459;50.836;19.138;2023-05-29T02:28:28;5.88;;;2.50;;
74974;SDS011;68459;50.836;19.138;2023-05-29T02:31:33;4.35;;;2.47;;
74974;SDS011;68459;50.836;19.138;2023-05-29T02:34:39;5.05;;;2.58;;
74974;SDS011;68459;50.836;19.138;2023-05-29T02:37:43;4.57;;;2.30;;
74974;SDS011;68459;50.836;19.138;2023-05-29T02:40:50;4.85;;;2.70;;
74974;SDS011;68459;50.836;19.138;2023-05-29T02:43:54;7.47;;;2.50;;
74974;SDS011;68459;50.836;19.138;2023-05-29T02:47:00;7.80;;;2.57;;
74974;SDS011;68459;50.836;19.138;2023-05-29T02:50:04;4.82;;;2.55;;
74974;SDS011;68459;50.836;19.138;2023-05-29T02:53:10;5.10;;;2.22;;
74974;SDS011;68459;50.836;19.138;2023-05-29T02:56:14;7.32;;;2.40;;
74974;SDS011;68459;50.836;19.138;2023-05-29T02:59:18;5.57;;;2.60;;
74974;SDS011;68459;50.836;19.138;2023-05-29T03:02:24;4.22;;;2.58;;
74974;SDS011;68459;50.836;19.138;2023-05-29T03:05:28;4.57;;;2.90;;
74974;SDS011;68459;50.836;19.138;2023-05-29T03:08:32;8.77;;;2.97;;
74974;SDS011;68459;50.836;19.138;2023-05-29T03:11:36;4.72;;;2.60;;
74974;SDS011;68459;50.836;19.138;2023-05-29T03:14:43;5.93;;;2.78;;
74974;SDS011;68459;50.836;19.138;2023-05-29T03:17:49;6.60;;;2.70;;
74974;SDS011;68459;50.836;19.138;2023-05-29T03:20:59;4.25;;;2.60;;
74974;SDS011;68459;50.836;19.138;2023-05-29T03:24:07;5.90;;;2.70;;
74974;SDS011;68459;50.836;19.138;2023-05-29T03:27:13;4.05;;;2.40;;
74974;SDS011;68459;50.836;19.138;2023-05-29T03:30:19;8.10;;;2.70;;
74974;SDS011;68459;50.836;19.138;2023-05-29T03:33:26;7.55;;;2.35;;
74974;SDS011;68459;50.836;19.138;2023-05-29T03:36:43;4.88;;;2.28;;
74974;SDS011;68459;50.836;19.138;2023-05-29T03:39:48;7.80;;;2.50;;
74974;SDS011;68459;50.836;19.138;2023-05-29T03:42:53;6.75;;;2.53;;
74974;SDS011;68459;50.836;19.138;2023-05-29T03:45:57;6.10;;;3.25;;
74974;SDS011;68459;50.836;19.138;2023-05-29T03:49:05;6.57;;;2.63;;
74974;SDS011;68459;50.836;19.138;2023-05-29T03:52:10;6.07;;;3.17;;
74974;SDS011;68459;50.836;19.138;2023-05-29T03:55:14;9.43;;;2.92;;
74974;SDS011;68459;50.836;19.138;2023-05-29T03:58:19;6.38;;;3.00;;
74974;SDS011;68459;50.836;19.138;2023-05-29T04:01:23;8.90;;;3.17;;
74974;SDS011;68459;50.836;19.138;2023-05-29T04:04:30;4.82;;;2.55;;
74974;SDS011;68459;50.836;19.138;2023-05-29T04:07:34;7.95;;;3.00;;
74974;SDS011;68459;50.836;19.138;2023-05-29T04:10:40;6.17;;;3.17;;
74974;SDS011;68459;50.836;19.138;2023-05-29T04:13:45;6.43;;;3.28;;
74974;SDS011;68459;50.836;19.138;2023-05-29T04:16:49;6.53;;;3.08;;
74974;SDS011;68459;50.836;19.138;2023-05-29T04:19:55;8.60;;;3.43;;
74974;SDS011;68459;50.836;19.138;2023-05-29T04:22:59;5.72;;;2.92;;
74974;SDS011;68459;50.836;19.138;2023-05-29T04:26:03;6.20;;;3.05;;
74974;SDS011;68459;50.836;19.138;2023-05-29T04:29:11;7.88;;;3.00;;
74974;SDS011;68459;50.836;19.138;2023-05-29T04:32:16;6.60;;;3.05;;
74974;SDS011;68459;50.836;19.138;2023-05-29T04:35:22;6.53;;;3.05;;
74974;SDS011;68459;50.836;19.138;2023-05-29T04:38:31;9.25;;;3.40;;
74974;SDS011;68459;50.836;19.138;2023-05-29T04:41:35;10.70;;;2.70;;
74974;SDS011;68459;50.836;19.138;2023-05-29T04:44:43;4.95;;;2.60;;
74974;SDS011;68459;50.836;19.138;2023-05-29T04:47:46;6.43;;;2.72;;
74974;SDS011;68459;50.836;19.138;2023-05-29T04:50:52;7.23;;;3.17;;
74974;SDS011;68459;50.836;19.138;2023-05-29T04:53:57;6.72;;;2.90;;
74974;SDS011;68459;50.836;19.138;2023-05-29T04:57:01;5.95;;;2.95;;
74974;SDS011;68459;50.836;19.138;2023-05-29T05:00:08;6.90;;;3.65;;
74974;SDS011;68459;50.836;19.138;2023-05-29T05:03:18;10.27;;;3.45;;
74974;SDS011;68459;50.836;19.138;2023-05-29T05:06:23;8.65;;;3.97;;
74974;SDS011;68459;50.836;19.138;2023-05-29T05:09:28;7.47;;;3.47;;
74974;SDS011;68459;50.836;19.138;2023-05-29T05:12:32;6.73;;;3.43;;
74974;SDS011;68459;50.836;19.138;2023-05-29T05:15:37;7.22;;;2.95;;
74974;SDS011;68459;50.836;19.138;2023-05-29T05:18:41;10.32;;;2.85;;
74974;SDS011;68459;50.836;19.138;2023-05-29T05:21:46;6.63;;;2.73;;
74974;SDS011;68459;50.836;19.138;2023-05-29T05:24:53;6.95;;;2.65;;
74974;SDS011;68459;50.836;19.138;2023-05-29T05:27:58;5.68;;;2.38;;
74974;SDS011;68459;50.836;19.138;2023-05-29T05:31:03;7.10;;;2.90;;
74974;SDS011;68459;50.836;19.138;2023-05-29T05:34:07;7.68;;;2.90;;
74974;SDS011;68459;50.836;19.138;2023-05-29T05:37:12;7.18;;;3.10;;
74974;SDS011;68459;50.836;19.138;2023-05-29T05:40:17;9.43;;;2.97;;
74974;SDS011;68459;50.836;19.138;2023-05-29T05:43:33;5.43;;;2.97;;
74974;SDS011;68459;50.836;19.138;2023-05-29T05:46:43;6.63;;;3.00;;
74974;SDS011;68459;50.836;19.138;2023-05-29T05:49:47;4.40;;;3.00;;
74974;SDS011;68459;50.836;19.138;2023-05-29T05:52:54;7.43;;;2.90;;
74974;SDS011;68459;50.836;19.138;2023-05-29T05:55:57;5.75;;;2.53;;
74974;SDS011;68459;50.836;19.138;2023-05-29T05:59:02;6.30;;;3.10;;
74974;SDS011;68459;50.836;19.138;2023-05-29T06:02:05;5.63;;;2.80;;
74974;SDS011;68459;50.836;19.138;2023-05-29T06:05:11;8.48;;;3.20;;
74974;SDS011;68459;50.836;19.138;2023-05-29T06:08:18;7.10;;;4.03;;
74974;SDS011;68459;50.836;19.138;2023-05-29T06:11:22;9.30;;;3.67;;
74974;SDS011;68459;50.836;19.138;2023-05-29T06:14:27;10.33;;;3.37;;
74974;SDS011;68459;50.836;19.138;2023-05-29T06:17:31;11.38;;;3.90;;
74974;SDS011;68459;50.836;19.138;2023-05-29T06:20:37;7.72;;;3.70;;
74974;SDS011;68459;50.836;19.138;2023-05-29T06:23:43;11.60;;;4.07;;
74974;SDS011;68459;50.836;19.138;2023-05-29T06:26:47;9.52;;;4.30;;
74974;SDS011;68459;50.836;19.138;2023-05-29T06:29:53;12.50;;;3.78;;
74974;SDS011;68459;50.836;19.138;2023-05-29T06:32:57;8.70;;;3.30;;
74974;SDS011;68459;50.836;19.138;2023-05-29T06:36:05;7.45;;;3.13;;
74974;SDS011;68459;50.836;19.138;2023-05-29T06:39:13;5.40;;;2.80;;
74974;SDS011;68459;50.836;19.138;2023-05-29T06:42:20;6.15;;;3.20;;
74974;SDS011;68459;50.836;19.138;2023-05-29T06:45:32;5.73;;;2.80;;
74974;SDS011;68459;50.836;19.138;2023-05-29T06:48:36;5.25;;;2.60;;
74974;SDS011;68459;50.836;19.138;2023-05-29T06:51:40;9.88;;;2.40;;
74974;SDS011;68459;50.836;19.138;2023-05-29T06:55:13;5.30;;;2.47;;
74974;SDS011;68459;50.836;19.138;2023-05-29T06:58:16;9.15;;;2.60;;
74974;SDS011;68459;50.836;19.138;2023-05-29T07:01:20;4.65;;;2.15;;
74974;SDS011;68459;50.836;19.138;2023-05-29T07:04:32;3.85;;;1.77;;
74974;SDS011;68459;50.836;19.138;2023-05-29T07:07:36;5.10;;;1.70;;
74974;SDS011;68459;50.836;19.138;2023-05-29T07:10:43;5.80;;;2.10;;
74974;SDS011;68459;50.836;19.138;2023-05-29T07:13:48;3.63;;;1.65;;
74974;SDS011;68459;50.836;19.138;2023-05-29T07:16:51;4.03;;;1.90;;
74974;SDS011;68459;50.836;19.138;2023-05-29T07:19:55;6.43;;;2.08;;
74974;SDS011;68459;50.836;19.138;2023-05-29T07:22:59;5.38;;;2.00;;
74974;SDS011;68459;50.836;19.138;2023-05-29T07:26:05;3.77;;;1.93;;
74974;SDS011;68459;50.836;19.138;2023-05-29T07:29:09;4.90;;;2.00;;
74974;SDS011;68459;50.836;19.138;2023-05-29T07:32:14;2.97;;;1.60;;
74974;SDS011;68459;50.836;19.138;2023-05-29T07:35:18;3.08;;;1.70;;
74974;SDS011;68459;50.836;19.138;2023-05-29T07:38:23;2.42;;;1.40;;
74974;SDS011;68459;50.836;19.138;2023-05-29T07:41:28;5.22;;;2.00;;
74974;SDS011;68459;50.836;19.138;2023-05-29T07:44:32;3.38;;;1.50;;
74974;SDS011;68459;50.836;19.138;2023-05-29T07:47:36;4.37;;;1.83;;
74974;SDS011;68459;50.836;19.138;2023-05-29T07:50:40;5.38;;;1.92;;
74974;SDS011;68459;50.836;19.138;2023-05-29T07:53:44;4.75;;;1.63;;
74974;SDS011;68459;50.836;19.138;2023-05-29T07:56:51;4.05;;;2.30;;
74974;SDS011;68459;50.836;19.138;2023-05-29T07:59:55;3.53;;;1.70;;
74974;SDS011;68459;50.836;19.138;2023-05-29T08:02:59;3.75;;;1.50;;
74974;SDS011;68459;50.836;19.138;2023-05-29T08:06:04;5.90;;;1.70;;
74974;SDS011;68459;50.836;19.138;2023-05-29T08:09:09;3.97;;;1.70;;
74974;SDS011;68459;50.836;19.138;2023-05-29T08:12:14;6.72;;;1.70;;
74974;SDS011;68459;50.836;19.138;2023-05-29T08:15:18;4.03;;;1.65;;
74974;SDS011;68459;50.836;19.138;2023-05-29T08:18:25;4.10;;;1.60;;
74974;SDS011;68459;50.836;19.138;2023-05-29T08:21:29;4.20;;;1.47;;
74974;SDS011;68459;50.836;19.138;2023-05-29T08:24:34;3.88;;;2.20;;
74974;SDS011;68459;50.836;19.138;2023-05-29T08:27:39;3.10;;;1.30;;
74974;SDS011;68459;50.836;19.138;2023-05-29T08:30:43;3.75;;;1.20;;
74974;SDS011;68459;50.836;19.138;2023-05-29T08:33:47;4.28;;;1.42;;
74974;SDS011;68459;50.836;19.138;2023-05-29T08:36:51;4.10;;;1.10;;
74974;SDS011;68459;50.836;19.138;2023-05-29T08:39:57;5.55;;;1.52;;
74974;SDS011;68459;50.836;19.138;2023-05-29T08:43:04;6.37;;;1.60;;
74974;SDS011;68459;50.836;19.138;2023-05-29T08:46:18;3.00;;;1.40;;
74974;SDS011;68459;50.836;19.138;2023-05-29T08:49:22;4.15;;;1.30;;
74974;SDS011;68459;50.836;19.138;2023-05-29T08:52:27;4.43;;;1.75;;
74974;SDS011;68459;50.836;19.138;2023-05-29T08:55:38;5.88;;;1.60;;
74974;SDS011;68459;50.836;19.138;2023-05-29T08:58:44;4.28;;;1.55;;
74974;SDS011;68459;50.836;19.138;2023-05-29T09:01:49;4.88;;;2.00;;
74974;SDS011;68459;50.836;19.138;2023-05-29T09:04:53;4.83;;;1.60;;
74974;SDS011;68459;50.836;19.138;2023-05-29T09:07:59;3.42;;;1.50;;
74974;SDS011;68459;50.836;19.138;2023-05-29T09:11:06;3.95;;;1.67;;
74974;SDS011;68459;50.836;19.138;2023-05-29T09:14:16;2.92;;;1.73;;
74974;SDS011;68459;50.836;19.138;2023-05-29T09:17:37;3.50;;;1.53;;
74974;SDS011;68459;50.836;19.138;2023-05-29T09:20:41;3.22;;;1.95;;
74974;SDS011;68459;50.836;19.138;2023-05-29T09:23:45;5.38;;;3.45;;
74974;SDS011;68459;50.836;19.138;2023-05-29T09:26:49;5.15;;;1.90;;
74974;SDS011;68459;50.836;19.138;2023-05-29T09:29:55;5.60;;;1.40;;
74974;SDS011;68459;50.836;19.138;2023-05-29T09:32:59;3.80;;;1.73;;
74974;SDS011;68459;50.836;19.138;2023-05-29T09:36:04;2.75;;;1.40;;
74974;SDS011;68459;50.836;19.138;2023-05-29T09:39:07;4.85;;;1.80;;
74974;SDS011;68459;50.836;19.138;2023-05-29T09:42:19;4.33;;;1.67;;
74974;SDS011;68459;50.836;19.138;2023-05-29T09:45:27;4.05;;;1.55;;
74974;SDS011;68459;50.836;19.138;2023-05-29T09:48:32;5.47;;;1.50;;
74974;SDS011;68459;50.836;19.138;2023-05-29T09:51:38;2.72;;;1.40;;
74974;SDS011;68459;50.836;19.138;2023-05-29T09:54:44;3.17;;;1.60;;
74974;SDS011;68459;50.836;19.138;2023-05-29T09:57:48;5.30;;;1.58;;
74974;SDS011;68459;50.836;19.138;2023-05-29T10:00:55;5.18;;;2.70;;
74974;SDS011;68459;50.836;19.138;2023-05-29T10:04:00;3.17;;;1.48;;
74974;SDS011;68459;50.836;19.138;2023-05-29T10:07:05;3.60;;;1.40;;
74974;SDS011;68459;50.836;19.138;2023-05-29T10:10:13;4.03;;;1.55;;
74974;SDS011;68459;50.836;19.138;2023-05-29T10:13:20;4.03;;;1.40;;
74974;SDS011;68459;50.836;19.138;2023-05-29T10:16:32;4.43;;;1.50;;
74974;SDS011;68459;50.836;19.138;2023-05-29T10:19:43;3.17;;;1.20;;
74974;SDS011;68459;50.836;19.138;2023-05-29T10:22:51;3.67;;;1.50;;
74974;SDS011;68459;50.836;19.138;2023-05-29T10:26:02;7.00;;;1.52;;
74974;SDS011;68459;50.836;19.138;2023-05-29T10:29:17;3.53;;;1.35;;
74974;SDS011;68459;50.836;19.138;2023-05-29T10:32:32;4.13;;;1.20;;
74974;SDS011;68459;50.836;19.138;2023-05-29T10:35:51;4.13;;;1.40;;
74974;SDS011;68459;50.836;19.138;2023-05-29T10:39:08;5.68;;;1.40;;
74974;SDS011;68459;50.836;19.138;2023-05-29T10:45:51;5.43;;;1.40;;
74974;SDS011;68459;50.836;19.138;2023-05-29T10:48:56;2.33;;;1.10;;
74974;SDS011;68459;50.836;19.138;2023-05-29T10:52:02;4.32;;;1.30;;
74974;SDS011;68459;50.836;19.138;2023-05-29T10:55:08;4.53;;;1.38;;
74974;SDS011;68459;50.836;19.138;2023-05-29T10:58:14;5.38;;;1.73;;
74974;SDS011;68459;50.836;19.138;2023-05-29T11:01:23;3.83;;;1.27;;
74974;SDS011;68459;50.836;19.138;2023-05-29T11:04:29;5.07;;;1.50;;
74974;SDS011;68459;50.836;19.138;2023-05-29T11:07:38;7.28;;;1.20;;
74974;SDS011;68459;50.836;19.138;2023-05-29T11:10:56;3.60;;;1.25;;
74974;SDS011;68459;50.836;19.138;2023-05-29T11:14:02;6.00;;;1.30;;
74974;SDS011;68459;50.836;19.138;2023-05-29T11:17:08;5.05;;;1.40;;
74974;SDS011;68459;50.836;19.138;2023-05-29T11:23:47;2.70;;;1.23;;
74974;SDS011;68459;50.836;19.138;2023-05-29T11:26:54;2.63;;;1.05;;
74974;SDS011;68459;50.836;19.138;2023-05-29T11:30:00;5.22;;;1.40;;
74974;SDS011;68459;50.836;19.138;2023-05-29T11:33:03;3.17;;;1.42;;
74974;SDS011;68459;50.836;19.138;2023-05-29T11:36:13;3.80;;;1.13;;
74974;SDS011;68459;50.836;19.138;2023-05-29T11:39:17;3.30;;;1.30;;
74974;SDS011;68459;50.836;19.138;2023-05-29T11:42:21;4.05;;;1.25;;
74974;SDS011;68459;50.836;19.138;2023-05-29T11:45:25;3.45;;;1.10;;
74974;SDS011;68459;50.836;19.138;2023-05-29T11:48:29;4.28;;;1.45;;
74974;SDS011;68459;50.836;19.138;2023-05-29T11:51:34;2.83;;;1.40;;
74974;SDS011;68459;50.836;19.138;2023-05-29T11:54:38;5.03;;;2.05;;
74974;SDS011;68459;50.836;19.138;2023-05-29T11:57:48;2.47;;;1.27;;
74974;SDS011;68459;50.836;19.138;2023-05-29T12:00:54;4.63;;;1.58;;
74974;SDS011;68459;50.836;19.138;2023-05-29T12:03:58;4.72;;;1.30;;
74974;SDS011;68459;50.836;19.138;2023-05-29T12:07:03;3.73;;;1.30;;
74974;SDS011;68459;50.836;19.138;2023-05-29T12:10:21;2.72;;;1.35;;
74974;SDS011;68459;50.836;19.138;2023-05-29T12:13:25;2.83;;;1.20;;
74974;SDS011;68459;50.836;19.138;2023-05-29T12:16:30;2.60;;;1.30;;
74974;SDS011;68459;50.836;19.138;2023-05-29T12:19:37;3.65;;;1.27;;
74974;SDS011;68459;50.836;19.138;2023-05-29T12:22:43;5.37;;;1.50;;
74974;SDS011;68459;50.836;19.138;2023-05-29T12:25:48;3.83;;;1.00;;
74974;SDS011;68459;50.836;19.138;2023-05-29T12:28:54;2.88;;;1.27;;
74974;SDS011;68459;50.836;19.138;2023-05-29T12:31:58;4.30;;;1.30;;
74974;SDS011;68459;50.836;19.138;2023-05-29T12:35:09;4.53;;;1.20;;
74974;SDS011;68459;50.836;19.138;2023-05-29T12:38:18;4.53;;;1.70;;
74974;SDS011;68459;50.836;19.138;2023-05-29T12:41:23;2.85;;;1.30;;
74974;SDS011;68459;50.836;19.138;2023-05-29T12:44:30;4.55;;;1.50;;
74974;SDS011;68459;50.836;19.138;2023-05-29T12:47:34;5.03;;;1.58;;
74974;SDS011;68459;50.836;19.138;2023-05-29T12:50:39;3.97;;;1.10;;
74974;SDS011;68459;50.836;19.138;2023-05-29T12:53:44;3.87;;;1.27;;
74974;SDS011;68459;50.836;19.138;2023-05-29T12:56:48;3.75;;;1.42;;
74974;SDS011;68459;50.836;19.138;2023-05-29T12:59:53;3.83;;;1.60;;
74974;SDS011;68459;50.836;19.138;2023-05-29T13:02:57;5.10;;;1.30;;
74974;SDS011;68459;50.836;19.138;2023-05-29T13:06:01;3.10;;;1.17;;
74974;SDS011;68459;50.836;19.138;2023-05-29T13:09:07;3.53;;;1.10;;
74974;SDS011;68459;50.836;19.138;2023-05-29T13:12:10;4.45;;;1.40;;
74974;SDS011;68459;50.836;19.138;2023-05-29T13:15:14;3.95;;;1.30;;
74974;SDS011;68459;50.836;19.138;2023-05-29T13:18:18;4.13;;;1.33;;
74974;SDS011;68459;50.836;19.138;2023-05-29T13:21:22;3.65;;;1.35;;
74974;SDS011;68459;50.836;19.138;2023-05-29T13:24:27;3.03;;;1.30;;
74974;SDS011;68459;50.836;19.138;2023-05-29T13:27:31;4.80;;;1.40;;
74974;SDS011;68459;50.836;19.138;2023-05-29T13:30:35;3.20;;;1.50;;
74974;SDS011;68459;50.836;19.138;2023-05-29T13:33:39;5.57;;;1.38;;
74974;SDS011;68459;50.836;19.138;2023-05-29T13:36:42;3.33;;;1.45;;
74974;SDS011;68459;50.836;19.138;2023-05-29T13:39:48;6.00;;;1.70;;
74974;SDS011;68459;50.836;19.138;2023-05-29T13:42:52;5.82;;;1.35;;
74974;SDS011;68459;50.836;19.138;2023-05-29T13:45:56;4.32;;;1.33;;
74974;SDS011;68459;50.836;19.138;2023-05-29T13:49:00;3.65;;;1.30;;
74974;SDS011;68459;50.836;19.138;2023-05-29T13:52:04;3.53;;;1.10;;
74974;SDS011;68459;50.836;19.138;2023-05-29T13:55:10;3.27;;;1.27;;
74974;SDS011;68459;50.836;19.138;2023-05-29T13:58:14;5.00;;;1.50;;
74974;SDS011;68459;50.836;19.138;2023-05-29T14:01:17;5.90;;;1.40;;
74974;SDS011;68459;50.836;19.138;2023-05-29T14:04:22;6.57;;;3.00;;
74974;SDS011;68459;50.836;19.138;2023-05-29T14:07:26;4.30;;;1.40;;
74974;SDS011;68459;50.836;19.138;2023-05-29T14:10:31;4.37;;;1.07;;
74974;SDS011;68459;50.836;19.138;2023-05-29T14:13:35;6.28;;;1.50;;
74974;SDS011;68459;50.836;19.138;2023-05-29T14:16:39;3.33;;;1.20;;
74974;SDS011;68459;50.836;19.138;2023-05-29T14:19:43;3.22;;;1.17;;
74974;SDS011;68459;50.836;19.138;2023-05-29T14:22:49;6.35;;;1.40;;
74974;SDS011;68459;50.836;19.138;2023-05-29T14:25:54;6.10;;;1.50;;
74974;SDS011;68459;50.836;19.138;2023-05-29T14:28:59;5.95;;;1.52;;
74974;SDS011;68459;50.836;19.138;2023-05-29T14:32:15;6.18;;;1.77;;
74974;SDS011;68459;50.836;19.138;2023-05-29T14:35:19;2.97;;;1.10;;
74974;SDS011;68459;50.836;19.138;2023-05-29T14:38:22;5.90;;;1.30;;
74974;SDS011;68459;50.836;19.138;2023-05-29T14:41:28;4.40;;;1.27;;
74974;SDS011;68459;50.836;19.138;2023-05-29T14:44:32;2.78;;;1.27;;
74974;SDS011;68459;50.836;19.138;2023-05-29T14:47:35;4.65;;;1.50;;
74974;SDS011;68459;50.836;19.138;2023-05-29T14:50:39;4.10;;;1.08;;
74974;SDS011;68459;50.836;19.138;2023-05-29T14:53:43;3.85;;;1.25;;
74974;SDS011;68459;50.836;19.138;2023-05-29T14:56:50;2.93;;;1.30;;
74974;SDS011;68459;50.836;19.138;2023-05-29T14:59:54;4.38;;;1.20;;
74974;SDS011;68459;50.836;19.138;2023-05-29T15:02:58;3.63;;;1.23;;
74974;SDS011;68459;50.836;19.138;2023-05-29T15:06:02;3.78;;;1.20;;
74974;SDS011;68459;50.836;19.138;2023-05-29T15:09:08;3.47;;;1.63;;
74974;SDS011;68459;50.836;19.138;2023-05-29T15:12:14;6.43;;;1.50;;
74974;SDS011;68459;50.836;19.138;2023-05-29T15:15:17;4.57;;;1.45;;
74974;SDS011;68459;50.836;19.138;2023-05-29T15:18:21;2.33;;;1.23;;
74974;SDS011;68459;50.836;19.138;2023-05-29T15:21:25;4.20;;;1.40;;
74974;SDS011;68459;50.836;19.138;2023-05-29T15:24:29;4.63;;;1.50;;
74974;SDS011;68459;50.836;19.138;2023-05-29T15:27:34;4.50;;;1.20;;
74974;SDS011;68459;50.836;19.138;2023-05-29T15:30:37;3.40;;;1.17;;
74974;SDS011;68459;50.836;19.138;2023-05-29T15:33:41;2.70;;;1.35;;
74974;SDS011;68459;50.836;19.138;2023-05-29T15:36:45;5.88;;;1.55;;
74974;SDS011;68459;50.836;19.138;2023-05-29T15:39:48;3.05;;;1.27;;
74974;SDS011;68459;50.836;19.138;2023-05-29T15:42:54;2.23;;;1.43;;
74974;SDS011;68459;50.836;19.138;2023-05-29T15:45:57;3.58;;;1.10;;
74974;SDS011;68459;50.836;19.138;2023-05-29T15:49:01;4.97;;;1.30;;
74974;SDS011;68459;50.836;19.138;2023-05-29T15:52:05;6.05;;;1.45;;
74974;SDS011;68459;50.836;19.138;2023-05-29T15:55:09;5.18;;;1.40;;
74974;SDS011;68459;50.836;19.138;2023-05-29T15:58:14;4.63;;;1.47;;
74974;SDS011;68459;50.836;19.138;2023-05-29T16:01:18;4.40;;;1.42;;
74974;SDS011;68459;50.836;19.138;2023-05-29T16:04:22;4.10;;;1.50;;
74974;SDS011;68459;50.836;19.138;2023-05-29T16:07:26;3.42;;;1.70;;
74974;SDS011;68459;50.836;19.138;2023-05-29T16:10:29;7.72;;;1.42;;
74974;SDS011;68459;50.836;19.138;2023-05-29T16:13:35;3.80;;;1.20;;
74974;SDS011;68459;50.836;19.138;2023-05-29T16:16:38;3.40;;;1.65;;
74974;SDS011;68459;50.836;19.138;2023-05-29T16:19:42;3.80;;;1.42;;
74974;SDS011;68459;50.836;19.138;2023-05-29T16:22:46;3.58;;;1.30;;
74974;SDS011;68459;50.836;19.138;2023-05-29T16:25:50;3.42;;;1.52;;
74974;SDS011;68459;50.836;19.138;2023-05-29T16:28:56;3.03;;;1.37;;
74974;SDS011;68459;50.836;19.138;2023-05-29T16:32:01;5.70;;;1.35;;
74974;SDS011;68459;50.836;19.138;2023-05-29T16:35:05;3.65;;;1.70;;
74974;SDS011;68459;50.836;19.138;2023-05-29T16:38:10;4.32;;;1.40;;
74974;SDS011;68459;50.836;19.138;2023-05-29T16:41:14;2.83;;;1.40;;
74974;SDS011;68459;50.836;19.138;2023-05-29T16:44:20;4.77;;;1.30;;
74974;SDS011;68459;50.836;19.138;2023-05-29T16:47:23;7.72;;;1.73;;
74974;SDS011;68459;50.836;19.138;2023-05-29T16:50:28;4.15;;;1.55;;
74974;SDS011;68459;50.836;19.138;2023-05-29T16:53:31;5.38;;;1.67;;
74974;SDS011;68459;50.836;19.138;2023-05-29T16:56:36;3.22;;;1.50;;
74974;SDS011;68459;50.836;19.138;2023-05-29T16:59:41;3.93;;;1.60;;
74974;SDS011;68459;50.836;19.138;2023-05-29T17:02:45;3.80;;;1.60;;
74974;SDS011;68459;50.836;19.138;2023-05-29T17:05:49;2.85;;;1.58;;
74974;SDS011;68459;50.836;19.138;2023-05-29T17:08:53;6.03;;;1.50;;
74974;SDS011;68459;50.836;19.138;2023-05-29T17:11:57;4.38;;;1.30;;
74974;SDS011;68459;50.836;19.138;2023-05-29T17:15:02;4.05;;;1.75;;
74974;SDS011;68459;50.836;19.138;2023-05-29T17:18:07;3.92;;;1.58;;
74974;SDS011;68459;50.836;19.138;2023-05-29T17:21:11;4.90;;;1.80;;
74974;SDS011;68459;50.836;19.138;2023-05-29T17:24:14;7.63;;;2.60;;
74974;SDS011;68459;50.836;19.138;2023-05-29T17:27:18;4.85;;;1.80;;
74974;SDS011;68459;50.836;19.138;2023-05-29T17:30:23;4.63;;;1.70;;
74974;SDS011;68459;50.836;19.138;2023-05-29T17:33:27;4.90;;;1.80;;
74974;SDS011;68459;50.836;19.138;2023-05-29T17:36:31;4.90;;;1.63;;
74974;SDS011;68459;50.836;19.138;2023-05-29T17:39:35;5.00;;;1.65;;
74974;SDS011;68459;50.836;19.138;2023-05-29T17:42:39;2.60;;;1.55;;
74974;SDS011;68459;50.836;19.138;2023-05-29T17:45:44;5.77;;;1.83;;
74974;SDS011;68459;50.836;19.138;2023-05-29T17:48:53;5.43;;;2.03;;
74974;SDS011;68459;50.836;19.138;2023-05-29T17:51:57;8.40;;;2.10;;
74974;SDS011;68459;50.836;19.138;2023-05-29T17:55:01;5.30;;;1.95;;
74974;SDS011;68459;50.836;19.138;2023-05-29T17:58:06;3.55;;;1.88;;
74974;SDS011;68459;50.836;19.138;2023-05-29T18:01:12;3.00;;;1.90;;
74974;SDS011;68459;50.836;19.138;2023-05-29T18:04:16;8.00;;;2.50;;
74974;SDS011;68459;50.836;19.138;2023-05-29T18:07:20;5.40;;;2.25;;
74974;SDS011;68459;50.836;19.138;2023-05-29T18:10:24;5.57;;;2.08;;
74974;SDS011;68459;50.836;19.138;2023-05-29T18:13:28;5.72;;;1.98;;
74974;SDS011;68459;50.836;19.138;2023-05-29T18:16:35;3.23;;;2.10;;
74974;SDS011;68459;50.836;19.138;2023-05-29T18:19:40;5.95;;;1.80;;
74974;SDS011;68459;50.836;19.138;2023-05-29T18:22:44;6.88;;;2.40;;
74974;SDS011;68459;50.836;19.138;2023-05-29T18:25:48;6.40;;;2.13;;
74974;SDS011;68459;50.836;19.138;2023-05-29T18:28:52;7.57;;;2.05;;